Time;durP1;ratioP1;P1;durP2;ratioP2;P2;SDS_P1;SDS_P2;PMS_P1;PMS_P2;Temp;Humidity;BMP_temperature;BMP_pressure;BME280_temperature;BME280_humidity;BME280_pressure;Samples;Min_cycle;Max_cycle;Signal;HPM_P1;HPM_P2
2023/07/10 00:01:28;;;;;;;;;;;19.70;99.90;;;;;;2585561;54;20835;31
2023/07/10 00:04:02;;;;;;;;;;;19.70;99.90;;;;;;2604557;46;20789;31
2023/07/10 00:06:35;;;;;;;;;;;19.70;99.90;;;;;;2604008;46;19938;31
2023/07/10 00:09:10;;;;;;;;;;;19.70;99.90;;;;;;2603952;46;20752;31
2023/07/10 00:11:47;;;;;;;;;;;19.60;99.90;;;;;;2585586;54;19942;31
2023/07/10 00:14:20;;;;;;;;;;;19.50;99.90;;;;;;2702282;39;20998;31
2023/07/10 00:16:53;;;;;;;;;;;19.40;99.90;;;;;;2603808;46;20854;31
2023/07/10 00:19:27;;;;;;;;;;;19.30;99.90;;;;;;2683520;39;20955;31
2023/07/10 00:22:01;;;;;;;;;;;19.30;99.90;;;;;;2601283;46;19960;31
2023/07/10 00:24:34;;;;;;;;;;;19.30;99.90;;;;;;2603995;46;20821;31
2023/07/10 00:27:12;;;;;;;;;;;19.20;99.90;;;;;;2604203;46;19960;31
2023/07/10 00:29:46;;;;;;;;;;;19.20;99.90;;;;;;2604035;46;20929;31
2023/07/10 00:32:20;;;;;;;;;;;19.20;99.90;;;;;;2604137;47;19958;31
2023/07/10 00:34:52;;;;;;;;;;;19.20;99.90;;;;;;2585299;54;19964;31
2023/07/10 00:37:25;;;;;;;;;;;19.20;99.90;;;;;;2702171;39;22202;31
2023/07/10 00:39:57;;;;;;;;;;;19.20;99.90;;;;;;2585474;54;20801;31
2023/07/10 00:42:33;;;;;;;;;;;19.20;99.90;;;;;;2585635;54;21176;31
2023/07/10 00:45:09;;;;;;;;;;;19.20;99.90;;;;;;2585655;54;20864;31
2023/07/10 00:47:42;;;;;;;;;;;19.10;99.90;;;;;;2702262;39;20916;31
2023/07/10 00:50:20;;;;;;;;;;;19.00;99.90;;;;;;2585422;54;19938;31
2023/07/10 00:52:54;;;;;;;;;;;19.00;99.90;;;;;;2683732;39;20954;31
2023/07/10 00:55:33;;;;;;;;;;;19.00;99.90;;;;;;2603567;47;19938;31
2023/07/10 00:58:27;;;;;;;;;;;19.00;99.90;;;;;;2585470;54;20834;31
2023/07/10 01:01:02;;;;;;;;;;;19.00;99.90;;;;;;2603852;47;19934;31
2023/07/10 01:03:36;;;;;;;;;;;18.90;99.90;;;;;;2603611;47;19942;31
2023/07/10 01:06:12;;;;;;;;;;;18.90;99.90;;;;;;2585210;54;20808;31
2023/07/10 01:08:47;;;;;;;;;;;18.90;99.90;;;;;;2585423;54;20838;31
2023/07/10 01:11:20;;;;;;;;;;;18.80;99.90;;;;;;2683345;39;20938;31
2023/07/10 01:13:57;;;;;;;;;;;18.80;99.90;;;;;;2584396;54;20865;31
2023/07/10 01:16:32;;;;;;;;;;;18.80;99.90;;;;;;2598902;47;20835;31
2023/07/10 01:19:07;;;;;;;;;;;18.80;99.90;;;;;;2585456;54;19941;31
2023/07/10 01:21:43;;;;;;;;;;;18.70;99.90;;;;;;2585582;54;20814;31
2023/07/10 01:24:15;;;;;;;;;;;18.70;99.90;;;;;;2585239;54;19934;31
2023/07/10 01:26:50;;;;;;;;;;;18.70;99.90;;;;;;2585311;54;19934;31
2023/07/10 01:29:23;;;;;;;;;;;18.70;99.90;;;;;;2585979;54;20788;31
2023/07/10 01:31:56;;;;;;;;;;;18.70;99.90;;;;;;2586250;54;20724;31
2023/07/10 01:34:31;;;;;;;;;;;18.70;99.90;;;;;;2604875;46;20780;31
2023/07/10 01:37:08;;;;;;;;;;;18.70;99.90;;;;;;2604592;46;20020;31
2023/07/10 01:39:45;;;;;;;;;;;18.70;99.90;;;;;;2596393;46;19965;31
2023/07/10 01:42:18;;;;;;;;;;;18.60;99.90;;;;;;2586139;54;19934;31
2023/07/10 01:44:52;;;;;;;;;;;18.60;99.90;;;;;;2585926;54;20706;31
2023/07/10 01:47:25;;;;;;;;;;;18.60;99.90;;;;;;2585922;54;19938;31
2023/07/10 01:50:00;;;;;;;;;;;18.60;99.90;;;;;;2585908;54;20807;31
2023/07/10 01:52:36;;;;;;;;;;;18.60;99.90;;;;;;2586399;54;21099;31
2023/07/10 01:55:11;;;;;;;;;;;18.60;99.90;;;;;;2598423;46;20755;31
2023/07/10 01:57:50;;;;;;;;;;;18.50;99.90;;;;;;2586006;54;19934;31
2023/07/10 02:00:22;;;;;;;;;;;18.50;99.90;;;;;;2586123;54;19935;31
2023/07/10 02:02:57;;;;;;;;;;;18.50;99.90;;;;;;2586256;54;19938;31
2023/07/10 02:05:30;;;;;;;;;;;18.40;99.90;;;;;;2585926;54;20020;31
2023/07/10 02:08:06;;;;;;;;;;;18.30;99.90;;;;;;2585958;54;20846;31
2023/07/10 02:10:42;;;;;;;;;;;18.40;99.90;;;;;;2585988;54;19934;31
2023/07/10 02:13:22;;;;;;;;;;;18.40;99.90;;;;;;2604489;46;20805;31
2023/07/10 02:15:54;;;;;;;;;;;18.30;99.90;;;;;;2585894;54;20780;31
2023/07/10 02:18:30;;;;;;;;;;;18.30;99.90;;;;;;2586117;54;19935;31
2023/07/10 02:21:02;;;;;;;;;;;18.30;99.90;;;;;;2585931;54;20812;31
2023/07/10 02:23:40;;;;;;;;;;;18.30;99.90;;;;;;2604582;46;20021;31
2023/07/10 02:26:14;;;;;;;;;;;18.30;99.90;;;;;;2585975;54;19938;31
2023/07/10 02:28:48;;;;;;;;;;;18.20;99.90;;;;;;2586228;54;19941;31
2023/07/10 02:31:21;;;;;;;;;;;18.20;99.90;;;;;;2585593;54;19940;31
2023/07/10 02:33:57;;;;;;;;;;;18.20;99.90;;;;;;2585584;54;19990;31
2023/07/10 02:36:31;;;;;;;;;;;18.30;99.90;;;;;;2586203;54;20797;31
2023/07/10 02:39:07;;;;;;;;;;;18.20;99.90;;;;;;2585418;54;19942;31
2023/07/10 02:41:40;;;;;;;;;;;18.20;99.90;;;;;;2585453;54;20499;31
2023/07/10 02:44:15;;;;;;;;;;;18.20;99.90;;;;;;2585535;54;19935;31
2023/07/10 02:46:48;;;;;;;;;;;18.20;99.90;;;;;;2604230;46;20912;31
2023/07/10 02:49:22;;;;;;;;;;;18.20;99.90;;;;;;2604500;46;19946;31
2023/07/10 02:51:56;;;;;;;;;;;18.10;99.90;;;;;;2585994;54;21242;31
2023/07/10 02:54:31;;;;;;;;;;;18.10;99.90;;;;;;2603601;46;19934;31
2023/07/10 02:57:04;;;;;;;;;;;18.10;99.90;;;;;;2586066;54;22257;31
2023/07/10 02:59:37;;;;;;;;;;;18.10;99.90;;;;;;2604215;46;20020;31
2023/07/10 03:02:14;;;;;;;;;;;18.10;99.90;;;;;;2586000;54;21773;31
2023/07/10 03:04:48;;;;;;;;;;;18.10;99.90;;;;;;2604239;46;20068;31
2023/07/10 03:07:22;;;;;;;;;;;18.10;99.90;;;;;;2585346;54;19960;31
2023/07/10 03:09:58;;;;;;;;;;;18.10;99.90;;;;;;2600881;46;19934;31
2023/07/10 03:12:32;;;;;;;;;;;18.10;99.90;;;;;;2585715;54;19994;31
2023/07/10 03:15:07;;;;;;;;;;;18.00;99.90;;;;;;2604538;46;20791;31
2023/07/10 03:17:40;;;;;;;;;;;18.00;99.90;;;;;;2584987;54;20877;31
2023/07/10 03:20:14;;;;;;;;;;;18.00;99.90;;;;;;2701850;39;21644;31
2023/07/10 03:22:49;;;;;;;;;;;18.00;99.90;;;;;;2585046;54;19942;31
2023/07/10 03:25:24;;;;;;;;;;;18.00;99.90;;;;;;2585369;54;19938;31
2023/07/10 03:27:58;;;;;;;;;;;18.00;99.90;;;;;;2604197;46;19941;31
2023/07/10 03:30:30;;;;;;;;;;;18.00;99.90;;;;;;2585548;54;19941;31
2023/07/10 03:33:05;;;;;;;;;;;18.10;99.90;;;;;;2585789;54;19934;31
2023/07/10 03:35:40;;;;;;;;;;;18.00;99.90;;;;;;2585891;54;21161;31
2023/07/10 03:38:12;;;;;;;;;;;18.00;99.90;;;;;;2585488;54;20013;31
2023/07/10 03:40:54;;;;;;;;;;;18.10;99.90;;;;;;2585785;54;19935;31
2023/07/10 03:43:27;;;;;;;;;;;18.00;99.90;;;;;;2603995;46;19958;31
2023/07/10 03:46:00;;;;;;;;;;;18.00;99.90;;;;;;2585658;54;19941;31
2023/07/10 03:48:34;;;;;;;;;;;17.90;99.90;;;;;;2585923;54;20813;31
2023/07/10 03:51:07;;;;;;;;;;;18.00;99.90;;;;;;2585573;54;21671;31
2023/07/10 03:53:41;;;;;;;;;;;17.90;99.90;;;;;;2584890;54;20674;31
2023/07/10 03:56:19;;;;;;;;;;;17.90;99.90;;;;;;2585045;54;19941;31
2023/07/10 03:58:50;;;;;;;;;;;17.90;99.90;;;;;;2604533;46;19941;31
2023/07/10 04:01:24;;;;;;;;;;;17.90;99.90;;;;;;2585344;54;19941;31
2023/07/10 04:03:56;;;;;;;;;;;17.90;99.90;;;;;;2604014;46;20838;31
2023/07/10 04:06:32;;;;;;;;;;;17.90;99.90;;;;;;2585565;54;20001;31
2023/07/10 04:09:06;;;;;;;;;;;18.00;99.90;;;;;;2604343;46;20783;31
2023/07/10 04:11:45;;;;;;;;;;;18.10;99.90;;;;;;2604291;46;20773;31
2023/07/10 04:14:20;;;;;;;;;;;18.10;99.90;;;;;;2585496;54;19938;31
2023/07/10 04:16:55;;;;;;;;;;;18.10;99.90;;;;;;2585717;54;19965;31
2023/07/10 04:19:27;;;;;;;;;;;18.00;99.90;;;;;;2585785;54;20728;31
2023/07/10 04:22:00;;;;;;;;;;;18.10;99.90;;;;;;2585864;54;21066;31
2023/07/10 04:24:34;;;;;;;;;;;18.20;99.90;;;;;;2584793;54;19941;31
2023/07/10 04:27:11;;;;;;;;;;;18.30;99.90;;;;;;2702046;39;22262;31
2023/07/10 04:29:44;;;;;;;;;;;18.30;99.90;;;;;;2585806;54;21795;31
2023/07/10 04:32:16;;;;;;;;;;;18.50;99.90;;;;;;2585779;54;19934;31
2023/07/10 04:34:50;;;;;;;;;;;18.70;99.90;;;;;;2604006;46;19958;31
2023/07/10 04:37:25;;;;;;;;;;;19.00;99.90;;;;;;2585580;54;19997;31
2023/07/10 04:39:57;;;;;;;;;;;19.30;99.90;;;;;;2604217;47;21106;31
2023/07/10 04:42:34;;;;;;;;;;;19.60;99.90;;;;;;2603903;47;20838;31
2023/07/10 04:45:10;;;;;;;;;;;19.80;99.90;;;;;;2585525;54;19934;31
2023/07/10 04:47:42;;;;;;;;;;;20.10;99.90;;;;;;2604083;47;19934;31
2023/07/10 04:50:17;;;;;;;;;;;20.30;99.90;;;;;;2604138;47;20063;31
2023/07/10 04:52:50;;;;;;;;;;;20.50;99.90;;;;;;2584523;54;20698;31
2023/07/10 04:55:26;;;;;;;;;;;20.80;99.90;;;;;;2604045;47;21217;31
2023/07/10 04:58:02;;;;;;;;;;;21.00;99.90;;;;;;2585463;54;21060;31
2023/07/10 05:00:35;;;;;;;;;;;21.30;99.90;;;;;;2604155;47;19941;31
2023/07/10 05:03:07;;;;;;;;;;;21.40;99.90;;;;;;2585205;54;20772;31
2023/07/10 05:05:40;;;;;;;;;;;21.50;99.90;;;;;;2586132;54;20856;31
2023/07/10 05:08:12;;;;;;;;;;;21.80;99.90;;;;;;2755266;31;21169;31
2023/07/10 05:10:46;;;;;;;;;;;22.00;99.90;;;;;;2585962;54;20056;31
2023/07/10 05:13:21;;;;;;;;;;;22.30;99.90;;;;;;2586205;54;19957;31
2023/07/10 05:15:55;;;;;;;;;;;22.40;99.90;;;;;;2589424;46;20766;31
2023/07/10 05:18:30;;;;;;;;;;;22.40;99.90;;;;;;2585545;54;19957;31
2023/07/10 05:21:02;;;;;;;;;;;22.30;99.90;;;;;;2585601;54;19962;31
2023/07/10 05:23:35;;;;;;;;;;;22.20;99.90;;;;;;2604820;46;19946;31
2023/07/10 05:26:13;;;;;;;;;;;22.10;99.90;;;;;;2586109;54;19935;31
2023/07/10 05:28:49;;;;;;;;;;;22.00;99.90;;;;;;2586002;54;20817;31
2023/07/10 05:31:22;;;;;;;;;;;21.90;99.90;;;;;;2604414;46;19960;31
2023/07/10 05:33:58;;;;;;;;;;;21.80;99.90;;;;;;2586190;54;21039;31
2023/07/10 05:36:34;;;;;;;;;;;21.70;99.90;;;;;;2604748;46;20770;31
2023/07/10 05:39:08;;;;;;;;;;;21.60;99.90;;;;;;2597156;46;20830;31
2023/07/10 05:41:41;;;;;;;;;;;21.60;99.90;;;;;;2603299;46;21303;31
2023/07/10 05:44:17;;;;;;;;;;;21.60;99.90;;;;;;2604754;46;19938;31
2023/07/10 05:46:51;;;;;;;;;;;21.60;99.90;;;;;;2586010;54;20808;31
2023/07/10 05:49:26;;;;;;;;;;;21.60;99.90;;;;;;2683910;39;21526;31
2023/07/10 05:52:01;;;;;;;;;;;21.60;99.90;;;;;;2604601;46;20861;31
2023/07/10 05:54:33;;;;;;;;;;;21.60;99.90;;;;;;2604587;46;19956;31
2023/07/10 05:57:06;;;;;;;;;;;21.70;99.90;;;;;;2684010;39;20998;31
2023/07/10 05:59:42;;;;;;;;;;;21.80;99.90;;;;;;2586182;54;20753;31
2023/07/10 06:02:14;;;;;;;;;;;21.90;99.90;;;;;;2604071;46;20930;31
2023/07/10 06:04:49;;;;;;;;;;;22.00;99.90;;;;;;2585863;54;19934;31
2023/07/10 06:07:21;;;;;;;;;;;22.00;99.90;;;;;;2604630;46;20811;31
2023/07/10 06:09:54;;;;;;;;;;;22.00;99.90;;;;;;2585931;54;19938;31
2023/07/10 06:12:28;;;;;;;;;;;22.00;99.90;;;;;;2585824;54;20065;31
2023/07/10 06:15:04;;;;;;;;;;;22.00;99.90;;;;;;2682785;39;21359;31
2023/07/10 06:17:36;;;;;;;;;;;22.00;99.90;;;;;;2585498;54;20021;31
2023/07/10 06:20:13;;;;;;;;;;;21.90;99.90;;;;;;2604245;46;20019;31
2023/07/10 06:22:46;;;;;;;;;;;21.90;99.90;;;;;;2586067;54;19935;31
2023/07/10 06:25:24;;;;;;;;;;;21.90;99.90;;;;;;2702628;39;20946;31
2023/07/10 06:27:58;;;;;;;;;;;21.90;99.90;;;;;;2585537;54;20850;31
2023/07/10 06:30:35;;;;;;;;;;;21.80;99.90;;;;;;2585734;54;20699;31
2023/07/10 06:33:10;;;;;;;;;;;21.90;99.90;;;;;;2586118;46;20805;31
2023/07/10 06:35:45;;;;;;;;;;;21.80;99.90;;;;;;2604515;46;19934;31
2023/07/10 06:38:17;;;;;;;;;;;21.80;99.90;;;;;;2688326;39;22208;31
2023/07/10 06:40:52;;;;;;;;;;;21.80;99.90;;;;;;2585642;54;19934;31
2023/07/10 06:43:26;;;;;;;;;;;21.80;99.90;;;;;;2585881;54;19957;31
2023/07/10 06:45:59;;;;;;;;;;;21.70;99.90;;;;;;2585315;54;20726;31
2023/07/10 06:48:35;;;;;;;;;;;21.70;99.90;;;;;;2585555;54;20862;31
2023/07/10 06:51:08;;;;;;;;;;;21.60;99.90;;;;;;2604363;46;19934;31
2023/07/10 06:53:42;;;;;;;;;;;21.70;99.90;;;;;;2594534;46;20704;31
2023/07/10 06:56:14;;;;;;;;;;;21.70;99.90;;;;;;2589761;39;20922;31
2023/07/10 06:58:48;;;;;;;;;;;21.80;99.90;;;;;;2585783;54;21040;31
2023/07/10 07:01:20;;;;;;;;;;;21.80;99.90;;;;;;2586026;54;22291;31
2023/07/10 07:03:57;;;;;;;;;;;21.80;99.90;;;;;;2585757;54;19958;31
2023/07/10 07:06:31;;;;;;;;;;;21.90;99.90;;;;;;2585770;54;22361;31
2023/07/10 07:09:04;;;;;;;;;;;22.00;99.90;;;;;;2587072;46;20769;31
2023/07/10 07:11:38;;;;;;;;;;;22.00;99.90;;;;;;2585837;54;19954;31
2023/07/10 07:14:13;;;;;;;;;;;22.10;99.90;;;;;;2585787;54;19942;31
2023/07/10 07:16:48;;;;;;;;;;;22.20;99.90;;;;;;2585402;54;20804;31
2023/07/10 07:19:24;;;;;;;;;;;22.50;99.90;;;;;;2599960;46;20729;31
2023/07/10 07:21:59;;;;;;;;;;;23.00;99.90;;;;;;2585584;54;20013;31
2023/07/10 07:24:32;;;;;;;;;;;23.20;99.90;;;;;;2585836;54;19935;31
2023/07/10 07:27:05;;;;;;;;;;;23.90;99.90;;;;;;2585259;54;20001;31
2023/07/10 07:29:38;;;;;;;;;;;24.40;99.90;;;;;;2586037;54;19986;31
2023/07/10 07:32:13;;;;;;;;;;;24.60;99.90;;;;;;2585347;54;19934;31
2023/07/10 07:34:48;;;;;;;;;;;24.80;99.90;;;;;;2585698;54;20825;31
2023/07/10 07:37:21;;;;;;;;;;;24.90;99.90;;;;;;2603973;46;19934;31
2023/07/10 07:39:58;;;;;;;;;;;24.90;99.90;;;;;;2590744;46;19935;31
2023/07/10 07:42:30;;;;;;;;;;;25.00;99.90;;;;;;2587125;46;22315;31
2023/07/10 07:45:03;;;;;;;;;;;25.10;99.90;;;;;;2586924;46;20722;31
2023/07/10 07:47:37;;;;;;;;;;;25.20;99.90;;;;;;2586048;46;20004;31
2023/07/10 07:50:16;;;;;;;;;;;25.30;99.90;;;;;;2585465;54;19935;31
2023/07/10 07:52:49;;;;;;;;;;;25.50;99.90;;;;;;2603987;46;20855;31
2023/07/10 07:55:21;;;;;;;;;;;25.60;99.90;;;;;;2585898;54;20707;31
2023/07/10 07:58:02;;;;;;;;;;;25.70;99.90;;;;;;2585307;54;20806;31
2023/07/10 08:00:35;;;;;;;;;;;25.80;99.90;;;;;;2585481;54;19942;31
2023/07/10 08:03:07;;;;;;;;;;;26.00;99.90;;;;;;2585049;54;20833;31
2023/07/10 08:05:44;;;;;;;;;;;26.00;99.90;;;;;;2586428;46;20804;31
2023/07/10 08:08:19;;;;;;;;;;;26.30;99.90;;;;;;2603977;46;19934;31
2023/07/10 08:10:52;;;;;;;;;;;26.70;99.90;;;;;;2682910;39;21406;31
2023/07/10 08:13:27;;;;;;;;;;;27.20;99.90;;;;;;2585010;54;19938;31
2023/07/10 08:16:03;;;;;;;;;;;27.70;99.90;;;;;;2585288;54;19934;31
2023/07/10 08:18:40;;;;;;;;;;;28.10;99.90;;;;;;2584985;54;20074;31
2023/07/10 08:21:24;;;;;;;;;;;28.20;99.90;;;;;;2585466;54;19934;31
2023/07/10 08:23:57;;;;;;;;;;;28.30;99.90;;;;;;2603853;46;19961;31
2023/07/10 08:26:32;;;;;;;;;;;28.40;99.90;;;;;;2682606;39;21780;31
2023/07/10 08:29:19;;;;;;;;;;;28.50;99.90;;;;;;2700244;39;21046;31
2023/07/10 08:31:54;;;;;;;;;;;28.80;99.90;;;;;;2585123;54;19961;31
2023/07/10 08:34:32;;;;;;;;;;;29.20;99.90;;;;;;2599730;46;19992;31
2023/07/10 08:37:13;;;;;;;;;;;29.50;99.90;;;;;;2602290;46;20069;31
2023/07/10 08:39:47;;;;;;;;;;;29.60;99.90;;;;;;2584482;54;19946;31
2023/07/10 08:42:22;;;;;;;;;;;29.60;99.90;;;;;;2604348;46;19934;31
2023/07/10 08:44:57;;;;;;;;;;;29.50;99.90;;;;;;2683642;39;21523;31
2023/07/10 08:47:34;;;;;;;;;;;29.50;99.90;;;;;;2585888;54;19941;31
2023/07/10 08:50:10;;;;;;;;;;;29.40;99.90;;;;;;2585050;54;20812;31
2023/07/10 08:52:53;;;;;;;;;;;29.30;99.90;;;;;;2603722;46;19957;31
2023/07/10 08:55:29;;;;;;;;;;;29.20;99.90;;;;;;2604554;46;19957;31
2023/07/10 08:58:07;;;;;;;;;;;29.10;99.90;;;;;;2702121;39;21543;31
2023/07/10 09:00:50;;;;;;;;;;;29.00;99.90;;;;;;2585817;54;20686;31
2023/07/10 09:03:30;;;;;;;;;;;28.90;99.90;;;;;;2585653;54;19938;31
2023/07/10 09:06:04;;;;;;;;;;;28.80;99.90;;;;;;2585431;54;19939;31
2023/07/10 09:08:41;;;;;;;;;;;28.70;99.90;;;;;;2585910;54;19961;31
2023/07/10 09:11:18;;;;;;;;;;;28.70;99.90;;;;;;2585917;54;20740;31
2023/07/10 09:13:53;;;;;;;;;;;28.60;99.90;;;;;;2604157;46;20715;31
2023/07/10 09:16:28;;;;;;;;;;;28.50;99.90;;;;;;2586268;54;20854;31
2023/07/10 09:19:06;;;;;;;;;;;28.40;99.90;;;;;;2585622;54;20793;31
2023/07/10 09:21:42;;;;;;;;;;;28.30;99.90;;;;;;2604158;46;20848;31
2023/07/10 09:24:21;;;;;;;;;;;28.20;99.90;;;;;;2684065;39;21109;31
2023/07/10 09:27:09;;;;;;;;;;;28.10;99.90;;;;;;2585831;54;20812;31
2023/07/10 09:29:46;;;;;;;;;;;28.00;99.90;;;;;;2585580;54;19934;31
2023/07/10 09:32:23;;;;;;;;;;;27.90;99.90;;;;;;2604379;46;19934;31
2023/07/10 09:35:02;;;;;;;;;;;27.80;99.90;;;;;;2585529;54;19977;31
2023/07/10 09:37:37;;;;;;;;;;;27.70;99.90;;;;;;2585397;54;20896;31
2023/07/10 09:40:30;;;;;;;;;;;27.50;99.90;;;;;;2585627;54;20647;31
2023/07/10 09:45:40;;;;;;;;;;;27.30;99.90;;;;;;2586004;54;19934;31
2023/07/10 09:48:15;;;;;;;;;;;27.10;99.90;;;;;;2604265;46;20855;31
2023/07/10 09:50:49;;;;;;;;;;;27.20;99.90;;;;;;2602298;46;19941;31
2023/07/10 09:53:31;;;;;;;;;;;27.20;99.90;;;;;;2604422;46;19977;31
2023/07/10 09:56:09;;;;;;;;;;;27.20;99.90;;;;;;2585711;54;19957;31
2023/07/10 09:58:48;;;;;;;;;;;27.20;99.90;;;;;;2604311;46;20836;31
2023/07/10 10:01:23;;;;;;;;;;;27.10;99.90;;;;;;2585663;54;20040;31
2023/07/10 10:03:56;;;;;;;;;;;27.10;99.90;;;;;;2604050;46;20772;31
2023/07/10 10:06:31;;;;;;;;;;;27.00;99.90;;;;;;2701751;39;21574;31
2023/07/10 10:09:05;;;;;;;;;;;27.00;99.90;;;;;;2600134;46;20065;31
2023/07/10 10:11:44;;;;;;;;;;;26.90;99.90;;;;;;2585182;54;19934;31
2023/07/10 10:14:22;;;;;;;;;;;26.90;99.90;;;;;;2585670;54;20816;31
2023/07/10 10:16:57;;;;;;;;;;;26.80;99.90;;;;;;2604414;46;20832;31
2023/07/10 10:19:32;;;;;;;;;;;26.80;99.90;;;;;;2585276;54;21236;31
2023/07/10 10:22:10;;;;;;;;;;;26.70;99.90;;;;;;2584717;54;20800;31
2023/07/10 10:24:44;;;;;;;;;;;26.60;99.90;;;;;;2585288;54;20792;31
2023/07/10 10:27:35;;;;;;;;;;;26.50;99.90;;;;;;2683710;39;21536;31
2023/07/10 10:30:23;;;;;;;;;;;26.30;99.90;;;;;;2603590;46;19941;31
2023/07/10 10:32:57;;;;;;;;;;;26.20;99.90;;;;;;2603968;46;20759;31
2023/07/10 10:35:40;;;;;;;;;;;26.20;99.90;;;;;;2603851;46;20709;31
2023/07/10 10:38:21;;;;;;;;;;;26.10;99.90;;;;;;2603963;46;20717;31
2023/07/10 10:40:59;;;;;;;;;;;26.20;99.90;;;;;;2604215;46;20800;31
2023/07/10 10:43:54;;;;;;;;;;;26.20;99.90;;;;;;2585396;54;20016;31
2023/07/10 10:46:30;;;;;;;;;;;26.40;99.90;;;;;;2585374;54;20789;31
2023/07/10 10:49:14;;;;;;;;;;;26.60;99.90;;;;;;2603568;46;20867;31
2023/07/10 10:51:51;;;;;;;;;;;26.80;99.90;;;;;;2585635;54;20875;31
2023/07/10 10:54:31;;;;;;;;;;;26.90;99.90;;;;;;2772764;31;20601;31
2023/07/10 10:57:14;;;;;;;;;;;27.10;99.90;;;;;;2603776;46;19934;31
2023/07/10 10:59:50;;;;;;;;;;;27.20;99.90;;;;;;2603851;46;19957;31
2023/07/10 11:02:35;;;;;;;;;;;27.30;99.90;;;;;;2585227;54;21532;31
2023/07/10 11:05:16;;;;;;;;;;;27.50;99.90;;;;;;2585504;54;20012;31
2023/07/10 11:07:49;;;;;;;;;;;27.80;99.90;;;;;;2584364;54;19943;31
2023/07/10 11:10:42;;;;;;;;;;;28.00;99.90;;;;;;2585128;54;19935;31
2023/07/10 11:13:23;;;;;;;;;;;28.10;99.90;;;;;;2585493;54;20725;31
2023/07/10 11:16:02;;;;;;;;;;;28.30;99.90;;;;;;2603687;46;19935;31
2023/07/10 11:18:40;;;;;;;;;;;28.50;99.90;;;;;;2585484;54;20846;31
2023/07/10 11:21:20;;;;;;;;;;;28.60;99.90;;;;;;2585168;54;20785;31
2023/07/10 11:24:00;;;;;;;;;;;28.80;99.90;;;;;;2585524;54;19997;31
2023/07/10 11:26:36;;;;;;;;;;;29.00;99.90;;;;;;2603713;46;20570;31
2023/07/10 11:29:13;;;;;;;;;;;29.20;99.90;;;;;;2585724;54;20831;31
2023/07/10 11:31:48;;;;;;;;;;;29.40;99.90;;;;;;2604036;46;19939;31
2023/07/10 11:34:27;;;;;;;;;;;29.50;99.90;;;;;;2585464;54;19943;31
2023/07/10 11:37:04;;;;;;;;;;;29.60;99.90;;;;;;2585447;54;19938;31
2023/07/10 11:39:54;;;;;;;;;;;29.70;99.90;;;;;;2584674;54;20794;31
2023/07/10 11:42:32;;;;;;;;;;;29.70;99.90;;;;;;2604146;46;20856;31
2023/07/10 11:45:07;;;;;;;;;;;29.80;99.90;;;;;;2596219;46;20653;31
2023/07/10 11:47:44;;;;;;;;;;;29.90;99.90;;;;;;2603260;46;20813;31
2023/07/10 11:50:20;;;;;;;;;;;29.90;99.90;;;;;;2603773;46;19940;31
2023/07/10 11:53:04;;;;;;;;;;;30.00;99.90;;;;;;2603869;46;19935;31
2023/07/10 11:55:49;;;;;;;;;;;30.10;99.90;;;;;;2604035;46;19958;31
2023/07/10 11:58:27;;;;;;;;;;;30.10;99.90;;;;;;2585568;54;19982;31
2023/07/10 12:01:14;;;;;;;;;;;30.20;99.90;;;;;;2603683;46;19938;31
2023/07/10 12:03:51;;;;;;;;;;;30.20;99.80;;;;;;2584507;54;19943;31
2023/07/10 12:06:29;;;;;;;;;;;30.30;99.60;;;;;;2584141;54;19941;31
2023/07/10 12:09:05;;;;;;;;;;;30.30;97.80;;;;;;2584557;54;20799;31
2023/07/10 12:11:45;;;;;;;;;;;30.30;97.40;;;;;;2585178;54;20775;31
2023/07/10 12:14:18;;;;;;;;;;;30.30;97.10;;;;;;2603551;46;19942;31
2023/07/10 12:17:01;;;;;;;;;;;30.20;96.90;;;;;;2584983;54;20787;31
2023/07/10 12:22:34;;;;;;;;;;;30.10;96.40;;;;;;2631038;54;19935;-92
2023/07/10 12:25:14;;;;;;;;;;;30.00;97.40;;;;;;2584474;54;19942;31
2023/07/10 12:27:53;;;;;;;;;;;29.90;98.20;;;;;;2584144;54;20957;31
2023/07/10 12:30:38;;;;;;;;;;;29.70;98.80;;;;;;2592282;46;19935;31
2023/07/10 12:33:51;;;;;;;;;;;29.60;98.20;;;;;;2584479;47;20687;31
2023/07/10 12:36:29;;;;;;;;;;;29.40;98.40;;;;;;2589206;46;20806;31
2023/07/10 12:39:04;;;;;;;;;;;29.20;98.00;;;;;;2603659;46;20736;31
2023/07/10 12:41:44;;;;;;;;;;;29.10;99.90;;;;;;2584746;54;19962;31
2023/07/10 12:44:20;;;;;;;;;;;29.10;99.90;;;;;;2603844;47;20837;31
2023/07/10 12:47:00;;;;;;;;;;;29.10;99.90;;;;;;2603598;47;20831;31
2023/07/10 12:49:39;;;;;;;;;;;29.10;99.90;;;;;;2585041;54;20768;31
2023/07/10 12:52:14;;;;;;;;;;;29.10;99.90;;;;;;2603444;47;20711;31
2023/07/10 12:54:51;;;;;;;;;;;29.20;99.10;;;;;;2603355;47;20824;31
2023/07/10 12:57:34;;;;;;;;;;;29.30;98.90;;;;;;2603371;47;20932;31
2023/07/10 13:00:15;;;;;;;;;;;29.40;99.20;;;;;;2585189;54;19941;31
2023/07/10 13:02:54;;;;;;;;;;;29.50;98.50;;;;;;2584986;54;20777;31
2023/07/10 13:05:30;;;;;;;;;;;29.60;98.00;;;;;;2584983;54;20895;31
2023/07/10 13:08:06;;;;;;;;;;;29.70;97.40;;;;;;2584559;54;19934;31
2023/07/10 13:10:42;;;;;;;;;;;29.70;97.60;;;;;;2584868;54;20008;31
2023/07/10 13:13:22;;;;;;;;;;;29.70;97.30;;;;;;2603689;47;20722;31
2023/07/10 13:16:01;;;;;;;;;;;29.70;97.90;;;;;;2585264;54;19964;31
2023/07/10 13:18:42;;;;;;;;;;;29.70;97.20;;;;;;2584556;54;19957;31
2023/07/10 13:21:27;;;;;;;;;;;29.60;97.00;;;;;;2602628;47;20849;31
2023/07/10 13:24:02;;;;;;;;;;;29.80;97.90;;;;;;2603320;47;20790;31
2023/07/10 13:26:37;;;;;;;;;;;29.90;97.00;;;;;;2604194;46;19941;31
2023/07/10 13:29:19;;;;;;;;;;;29.90;96.70;;;;;;2604048;46;20741;31
2023/07/10 13:31:59;;;;;;;;;;;30.00;97.60;;;;;;2585357;54;20752;31
2023/07/10 13:34:37;;;;;;;;;;;30.00;97.30;;;;;;2601352;46;20001;31
2023/07/10 13:37:18;;;;;;;;;;;30.00;97.30;;;;;;2604034;46;19935;31
2023/07/10 13:39:54;;;;;;;;;;;30.00;97.80;;;;;;2584888;54;19939;31
2023/07/10 13:42:29;;;;;;;;;;;30.00;97.10;;;;;;2585604;54;19934;31
2023/07/10 13:45:06;;;;;;;;;;;30.00;97.60;;;;;;2585714;54;20891;31
2023/07/10 13:47:42;;;;;;;;;;;30.10;97.60;;;;;;2604037;46;20015;31
2023/07/10 13:50:16;;;;;;;;;;;30.20;99.60;;;;;;2585340;54;20790;31
2023/07/10 13:52:55;;;;;;;;;;;30.30;98.00;;;;;;2584929;54;19997;31
2023/07/10 13:55:30;;;;;;;;;;;30.40;96.40;;;;;;2584900;54;20800;31
2023/07/10 13:58:11;;;;;;;;;;;30.40;96.40;;;;;;2585605;54;19946;31
2023/07/10 14:00:47;;;;;;;;;;;30.40;97.60;;;;;;2585519;54;19934;31
2023/07/10 14:03:25;;;;;;;;;;;30.30;96.60;;;;;;2585484;54;20607;31
2023/07/10 14:06:03;;;;;;;;;;;30.30;96.80;;;;;;2594340;46;19934;31
2023/07/10 14:08:42;;;;;;;;;;;30.00;97.50;;;;;;2584718;54;20808;31
2023/07/10 14:11:22;;;;;;;;;;;29.80;97.60;;;;;;2585431;54;20816;31
2023/07/10 14:13:56;;;;;;;;;;;29.80;97.90;;;;;;2589555;46;20648;31
2023/07/10 14:16:34;;;;;;;;;;;29.60;98.20;;;;;;2585231;54;19950;31
2023/07/10 14:19:17;;;;;;;;;;;29.30;98.20;;;;;;2585736;54;20900;31
2023/07/10 14:21:56;;;;;;;;;;;29.30;99.90;;;;;;2584753;54;20860;31
2023/07/10 14:24:34;;;;;;;;;;;29.20;99.90;;;;;;2585155;54;20777;31
2023/07/10 14:27:19;;;;;;;;;;;29.10;99.90;;;;;;2600774;46;19935;31
2023/07/10 14:30:03;;;;;;;;;;;29.00;99.90;;;;;;2585266;54;20857;31
2023/07/10 14:32:41;;;;;;;;;;;28.90;99.90;;;;;;2604387;46;19957;31
2023/07/10 14:35:19;;;;;;;;;;;28.80;99.90;;;;;;2585249;54;19961;31
2023/07/10 14:37:55;;;;;;;;;;;28.60;99.90;;;;;;2585469;54;19950;31
2023/07/10 14:40:32;;;;;;;;;;;28.50;99.90;;;;;;2585625;54;19934;31
2023/07/10 14:43:06;;;;;;;;;;;28.40;99.90;;;;;;2596317;46;19965;31
2023/07/10 14:45:46;;;;;;;;;;;26.30;99.90;;;;;;2603730;46;20856;31
2023/07/10 14:48:20;;;;;;;;;;;28.30;99.90;;;;;;2585145;54;20805;31
2023/07/10 14:51:01;;;;;;;;;;;28.20;99.90;;;;;;2603869;46;19934;31
2023/07/10 14:53:35;;;;;;;;;;;;;;;;;;2585713;54;20920;31
2023/07/10 14:56:12;;;;;;;;;;;;;;;;;;2603195;46;19949;31
2023/07/10 14:58:48;;;;;;;;;;;28.30;99.90;;;;;;2584541;54;20686;31
2023/07/10 15:01:29;;;;;;;;;;;28.50;99.90;;;;;;2596196;46;20686;31
2023/07/10 15:04:08;;;;;;;;;;;28.50;99.90;;;;;;2603590;46;19934;31
2023/07/10 15:06:42;;;;;;;;;;;28.50;99.90;;;;;;2585277;54;19986;31
2023/07/10 15:09:17;;;;;;;;;;;28.50;99.90;;;;;;2603654;46;19935;31
2023/07/10 15:11:51;;;;;;;;;;;28.60;99.90;;;;;;2585292;54;19935;31
2023/07/10 15:14:26;;;;;;;;;;;28.60;99.90;;;;;;2585022;54;19935;31
2023/07/10 15:17:05;;;;;;;;;;;28.50;99.90;;;;;;2585182;54;20787;31
2023/07/10 15:19:40;;;;;;;;;;;28.60;99.90;;;;;;2585136;54;19938;31
2023/07/10 15:22:15;;;;;;;;;;;28.60;99.90;;;;;;2584994;54;20707;31
2023/07/10 15:24:52;;;;;;;;;;;28.60;99.90;;;;;;2603530;46;20041;31
2023/07/10 15:27:27;;;;;;;;;;;28.50;99.90;;;;;;2585192;54;20675;31
2023/07/10 15:30:01;;;;;;;;;;;28.70;99.90;;;;;;2585250;54;19942;31